sensor_id;sensor_type;location;lat;lon;timestamp;temperature;humidity
4699;DHT22;33708;49.466;11.176;2022-07-23T00:01:56;20.10;1.00
4699;DHT22;33708;49.466;11.176;2022-07-23T00:04:22;20.20;1.00
4699;DHT22;33708;49.466;11.176;2022-07-23T00:06:47;20.20;1.00
4699;DHT22;33708;49.466;11.176;2022-07-23T00:09:13;20.20;1.00
4699;DHT22;33708;49.466;11.176;2022-07-23T00:11:38;20.10;1.00
4699;DHT22;33708;49.466;11.176;2022-07-23T00:14:04;19.90;1.00
4699;DHT22;33708;49.466;11.176;2022-07-23T00:16:29;19.80;1.00
4699;DHT22;33708;49.466;11.176;2022-07-23T00:18:55;19.70;1.00
4699;DHT22;33708;49.466;11.176;2022-07-23T00:21:21;19.50;1.00
4699;DHT22;33708;49.466;11.176;2022-07-23T00:23:47;19.60;1.00
4699;DHT22;33708;49.466;11.176;2022-07-23T00:26:12;19.60;1.00
4699;DHT22;33708;49.466;11.176;2022-07-23T00:28:38;19.60;1.00
4699;DHT22;33708;49.466;11.176;2022-07-23T00:31:04;19.60;1.00
4699;DHT22;33708;49.466;11.176;2022-07-23T00:33:30;19.60;1.00
4699;DHT22;33708;49.466;11.176;2022-07-23T00:35:56;19.50;1.00
4699;DHT22;33708;49.466;11.176;2022-07-23T00:38:21;19.60;1.00
4699;DHT22;33708;49.466;11.176;2022-07-23T00:40:47;19.80;1.00
4699;DHT22;33708;49.466;11.176;2022-07-23T00:43:13;19.90;1.00
4699;DHT22;33708;49.466;11.176;2022-07-23T00:45:38;19.90;1.00
4699;DHT22;33708;49.466;11.176;2022-07-23T00:48:04;19.70;1.00
4699;DHT22;33708;49.466;11.176;2022-07-23T00:50:30;19.60;1.00
4699;DHT22;33708;49.466;11.176;2022-07-23T00:52:56;19.40;1.00
4699;DHT22;33708;49.466;11.176;2022-07-23T00:55:22;19.40;1.00
4699;DHT22;33708;49.466;11.176;2022-07-23T00:57:48;19.60;1.00
4699;DHT22;33708;49.466;11.176;2022-07-23T01:00:15;19.70;1.00
4699;DHT22;33708;49.466;11.176;2022-07-23T01:02:41;19.60;1.00
4699;DHT22;33708;49.466;11.176;2022-07-23T01:05:08;19.70;1.00
4699;DHT22;33708;49.466;11.176;2022-07-23T01:07:34;19.80;1.00
4699;DHT22;33708;49.466;11.176;2022-07-23T01:10:00;19.80;1.00
4699;DHT22;33708;49.466;11.176;2022-07-23T01:12:26;19.90;1.00
4699;DHT22;33708;49.466;11.176;2022-07-23T01:14:59;20.00;1.00
4699;DHT22;33708;49.466;11.176;2022-07-23T01:17:25;20.20;1.00
4699;DHT22;33708;49.466;11.176;2022-07-23T01:19:51;20.00;1.00
4699;DHT22;33708;49.466;11.176;2022-07-23T01:22:21;20.00;1.00
4699;DHT22;33708;49.466;11.176;2022-07-23T01:24:47;20.10;1.00
4699;DHT22;33708;49.466;11.176;2022-07-23T01:27:13;20.20;1.00
4699;DHT22;33708;49.466;11.176;2022-07-23T01:29:39;20.00;1.00
4699;DHT22;33708;49.466;11.176;2022-07-23T01:32:05;20.00;1.00
4699;DHT22;33708;49.466;11.176;2022-07-23T01:34:31;20.10;1.00
4699;DHT22;33708;49.466;11.176;2022-07-23T01:36:57;19.80;1.00
4699;DHT22;33708;49.466;11.176;2022-07-23T01:39:25;19.80;1.00
4699;DHT22;33708;49.466;11.176;2022-07-23T01:41:51;19.80;1.00
4699;DHT22;33708;49.466;11.176;2022-07-23T01:44:16;20.00;1.00
4699;DHT22;33708;49.466;11.176;2022-07-23T01:46:42;20.00;1.00
4699;DHT22;33708;49.466;11.176;2022-07-23T01:49:08;19.70;1.00
4699;DHT22;33708;49.466;11.176;2022-07-23T01:51:33;19.90;1.00
4699;DHT22;33708;49.466;11.176;2022-07-23T01:53:59;19.90;1.00
4699;DHT22;33708;49.466;11.176;2022-07-23T01:56:25;20.00;1.00
4699;DHT22;33708;49.466;11.176;2022-07-23T01:58:50;20.10;1.00
4699;DHT22;33708;49.466;11.176;2022-07-23T02:01:16;20.00;1.00
4699;DHT22;33708;49.466;11.176;2022-07-23T02:03:42;19.90;1.00
4699;DHT22;33708;49.466;11.176;2022-07-23T02:06:07;19.80;1.00
4699;DHT22;33708;49.466;11.176;2022-07-23T02:08:33;19.90;1.00
4699;DHT22;33708;49.466;11.176;2022-07-23T02:10:59;19.70;1.00
4699;DHT22;33708;49.466;11.176;2022-07-23T02:13:24;19.60;1.00
4699;DHT22;33708;49.466;11.176;2022-07-23T02:15:50;19.50;1.00
4699;DHT22;33708;49.466;11.176;2022-07-23T02:18:15;19.50;1.00
4699;DHT22;33708;49.466;11.176;2022-07-23T02:20:41;19.50;1.00
4699;DHT22;33708;49.466;11.176;2022-07-23T02:23:07;19.40;1.00
4699;DHT22;33708;49.466;11.176;2022-07-23T02:25:34;19.40;1.00
4699;DHT22;33708;49.466;11.176;2022-07-23T02:27:59;19.30;1.00
4699;DHT22;33708;49.466;11.176;2022-07-23T02:30:25;19.40;1.00
4699;DHT22;33708;49.466;11.176;2022-07-23T02:32:51;19.40;1.00
4699;DHT22;33708;49.466;11.176;2022-07-23T02:35:16;19.30;1.00
4699;DHT22;33708;49.466;11.176;2022-07-23T02:37:42;19.20;1.00
4699;DHT22;33708;49.466;11.176;2022-07-23T02:40:08;19.20;1.00
4699;DHT22;33708;49.466;11.176;2022-07-23T02:42:34;19.10;1.00
4699;DHT22;33708;49.466;11.176;2022-07-23T02:44:59;19.00;1.00
4699;DHT22;33708;49.466;11.176;2022-07-23T02:47:28;19.00;1.00
4699;DHT22;33708;49.466;11.176;2022-07-23T02:49:53;19.10;1.00
4699;DHT22;33708;49.466;11.176;2022-07-23T02:52:19;19.10;1.00
4699;DHT22;33708;49.466;11.176;2022-07-23T02:54:44;19.10;1.00
4699;DHT22;33708;49.466;11.176;2022-07-23T02:57:10;19.10;1.00
4699;DHT22;33708;49.466;11.176;2022-07-23T02:59:36;19.10;1.00
4699;DHT22;33708;49.466;11.176;2022-07-23T03:02:01;19.00;1.00
4699;DHT22;33708;49.466;11.176;2022-07-23T03:04:27;19.00;1.00
4699;DHT22;33708;49.466;11.176;2022-07-23T03:06:52;18.90;1.00
4699;DHT22;33708;49.466;11.176;2022-07-23T03:09:18;18.90;1.30
4699;DHT22;33708;49.466;11.176;2022-07-23T03:11:44;18.90;1.90
4699;DHT22;33708;49.466;11.176;2022-07-23T03:14:09;18.90;1.30
4699;DHT22;33708;49.466;11.176;2022-07-23T03:16:38;18.90;6.40
4699;DHT22;33708;49.466;11.176;2022-07-23T03:19:04;18.90;6.30
4699;DHT22;33708;49.466;11.176;2022-07-23T03:21:29;18.90;6.80
4699;DHT22;33708;49.466;11.176;2022-07-23T03:23:55;19.00;7.70
4699;DHT22;33708;49.466;11.176;2022-07-23T03:26:20;18.90;7.30
4699;DHT22;33708;49.466;11.176;2022-07-23T03:28:50;18.80;9.50
4699;DHT22;33708;49.466;11.176;2022-07-23T03:31:16;18.70;8.40
4699;DHT22;33708;49.466;11.176;2022-07-23T03:33:41;18.60;11.90
4699;DHT22;33708;49.466;11.176;2022-07-23T03:36:08;18.60;13.60
4699;DHT22;33708;49.466;11.176;2022-07-23T03:38:33;18.60;13.20
4699;DHT22;33708;49.466;11.176;2022-07-23T03:40:59;18.60;9.60
4699;DHT22;33708;49.466;11.176;2022-07-23T03:43:24;18.70;15.20
4699;DHT22;33708;49.466;11.176;2022-07-23T03:45:51;18.70;11.20
4699;DHT22;33708;49.466;11.176;2022-07-23T03:48:16;18.80;11.80
4699;DHT22;33708;49.466;11.176;2022-07-23T03:50:42;18.80;11.60
4699;DHT22;33708;49.466;11.176;2022-07-23T03:53:07;18.80;9.80
4699;DHT22;33708;49.466;11.176;2022-07-23T03:55:33;18.70;9.00
4699;DHT22;33708;49.466;11.176;2022-07-23T03:57:59;18.60;11.20
4699;DHT22;33708;49.466;11.176;2022-07-23T04:00:24;18.50;10.30
4699;DHT22;33708;49.466;11.176;2022-07-23T04:02:50;18.50;13.50
4699;DHT22;33708;49.466;11.176;2022-07-23T04:05:16;18.40;13.50
4699;DHT22;33708;49.466;11.176;2022-07-23T04:07:41;18.30;16.50
4699;DHT22;33708;49.466;11.176;2022-07-23T04:10:07;18.30;16.70
4699;DHT22;33708;49.466;11.176;2022-07-23T04:12:33;18.40;27.10
4699;DHT22;33708;49.466;11.176;2022-07-23T04:14:59;18.50;17.20
4699;DHT22;33708;49.466;11.176;2022-07-23T04:17:24;18.60;16.40
4699;DHT22;33708;49.466;11.176;2022-07-23T04:19:50;18.60;15.00
4699;DHT22;33708;49.466;11.176;2022-07-23T04:22:16;18.80;11.60
4699;DHT22;33708;49.466;11.176;2022-07-23T04:24:42;18.90;10.10
4699;DHT22;33708;49.466;11.176;2022-07-23T04:27:07;18.90;8.50
4699;DHT22;33708;49.466;11.176;2022-07-23T04:29:33;19.20;9.30
4699;DHT22;33708;49.466;11.176;2022-07-23T04:31:58;19.30;5.00
4699;DHT22;33708;49.466;11.176;2022-07-23T04:34:24;19.40;1.00
4699;DHT22;33708;49.466;11.176;2022-07-23T04:36:52;19.60;1.00
4699;DHT22;33708;49.466;11.176;2022-07-23T04:39:18;19.90;1.00
4699;DHT22;33708;49.466;11.176;2022-07-23T04:41:43;20.10;1.00
4699;DHT22;33708;49.466;11.176;2022-07-23T04:44:09;20.50;1.00
4699;DHT22;33708;49.466;11.176;2022-07-23T04:46:35;20.60;1.00
4699;DHT22;33708;49.466;11.176;2022-07-23T04:49:00;20.80;1.00
4699;DHT22;33708;49.466;11.176;2022-07-23T04:51:26;21.00;1.00
4699;DHT22;33708;49.466;11.176;2022-07-23T04:53:51;21.30;1.00
4699;DHT22;33708;49.466;11.176;2022-07-23T04:56:17;21.50;1.00
4699;DHT22;33708;49.466;11.176;2022-07-23T04:58:43;22.10;1.00
4699;DHT22;33708;49.466;11.176;2022-07-23T05:01:08;22.70;1.00
4699;DHT22;33708;49.466;11.176;2022-07-23T05:03:34;24.10;1.00
4699;DHT22;33708;49.466;11.176;2022-07-23T05:06:00;24.40;1.00
4699;DHT22;33708;49.466;11.176;2022-07-23T05:08:26;24.30;1.00
4699;DHT22;33708;49.466;11.176;2022-07-23T05:10:51;24.20;1.00
4699;DHT22;33708;49.466;11.176;2022-07-23T05:13:17;24.70;1.00
4699;DHT22;33708;49.466;11.176;2022-07-23T05:15:43;27.10;1.00
4699;DHT22;33708;49.466;11.176;2022-07-23T05:18:10;27.30;1.00
4699;DHT22;33708;49.466;11.176;2022-07-23T05:20:36;27.70;1.00
4699;DHT22;33708;49.466;11.176;2022-07-23T05:23:01;26.30;1.00
4699;DHT22;33708;49.466;11.176;2022-07-23T05:25:27;26.00;1.00
4699;DHT22;33708;49.466;11.176;2022-07-23T05:27:53;27.70;1.00
4699;DHT22;33708;49.466;11.176;2022-07-23T05:30:18;29.50;1.00
4699;DHT22;33708;49.466;11.176;2022-07-23T05:32:44;30.80;1.00
4699;DHT22;33708;49.466;11.176;2022-07-23T05:35:10;31.40;1.00
4699;DHT22;33708;49.466;11.176;2022-07-23T05:37:36;30.40;1.00
4699;DHT22;33708;49.466;11.176;2022-07-23T05:40:07;31.50;1.00
4699;DHT22;33708;49.466;11.176;2022-07-23T05:42:37;32.20;1.00
4699;DHT22;33708;49.466;11.176;2022-07-23T05:45:03;32.60;1.00
4699;DHT22;33708;49.466;11.176;2022-07-23T05:47:39;33.60;1.00
4699;DHT22;33708;49.466;11.176;2022-07-23T05:50:05;33.80;1.00
4699;DHT22;33708;49.466;11.176;2022-07-23T05:52:31;34.70;1.00
4699;DHT22;33708;49.466;11.176;2022-07-23T05:54:56;35.30;1.00
4699;DHT22;33708;49.466;11.176;2022-07-23T05:57:22;35.90;1.00
4699;DHT22;33708;49.466;11.176;2022-07-23T05:59:47;37.30;1.00
4699;DHT22;33708;49.466;11.176;2022-07-23T06:02:13;37.80;1.00
4699;DHT22;33708;49.466;11.176;2022-07-23T06:04:39;39.10;1.00
4699;DHT22;33708;49.466;11.176;2022-07-23T06:07:04;38.70;1.00
4699;DHT22;33708;49.466;11.176;2022-07-23T06:09:30;36.90;1.00
4699;DHT22;33708;49.466;11.176;2022-07-23T06:11:55;34.60;1.00
4699;DHT22;33708;49.466;11.176;2022-07-23T06:14:21;34.60;1.00
4699;DHT22;33708;49.466;11.176;2022-07-23T06:16:47;37.60;1.00
4699;DHT22;33708;49.466;11.176;2022-07-23T06:19:12;38.30;1.00
4699;DHT22;33708;49.466;11.176;2022-07-23T06:21:38;38.60;1.00
4699;DHT22;33708;49.466;11.176;2022-07-23T06:24:03;40.00;1.00
4699;DHT22;33708;49.466;11.176;2022-07-23T06:26:29;40.40;1.00
4699;DHT22;33708;49.466;11.176;2022-07-23T06:28:55;40.80;1.00
4699;DHT22;33708;49.466;11.176;2022-07-23T06:31:20;40.50;1.00
4699;DHT22;33708;49.466;11.176;2022-07-23T06:33:46;42.10;1.00
4699;DHT22;33708;49.466;11.176;2022-07-23T06:36:11;41.40;1.00
4699;DHT22;33708;49.466;11.176;2022-07-23T06:38:37;42.40;1.00
4699;DHT22;33708;49.466;11.176;2022-07-23T06:41:03;41.60;1.00
4699;DHT22;33708;49.466;11.176;2022-07-23T06:43:30;41.00;47.10
4699;DHT22;33708;49.466;11.176;2022-07-23T06:45:56;41.80;75.70
4699;DHT22;33708;49.466;11.176;2022-07-23T06:48:22;42.30;1.00
4699;DHT22;33708;49.466;11.176;2022-07-23T06:50:48;41.80;1.00
4699;DHT22;33708;49.466;11.176;2022-07-23T06:53:13;42.70;1.00
4699;DHT22;33708;49.466;11.176;2022-07-23T06:55:39;43.00;1.00
4699;DHT22;33708;49.466;11.176;2022-07-23T06:58:05;41.80;1.00
4699;DHT22;33708;49.466;11.176;2022-07-23T07:00:31;41.80;1.00
4699;DHT22;33708;49.466;11.176;2022-07-23T07:02:57;43.70;33.60
4699;DHT22;33708;49.466;11.176;2022-07-23T07:05:23;43.40;1.00
4699;DHT22;33708;49.466;11.176;2022-07-23T07:07:50;40.50;1.00
4699;DHT22;33708;49.466;11.176;2022-07-23T07:10:16;42.10;1.00
4699;DHT22;33708;49.466;11.176;2022-07-23T07:12:43;41.70;1.00
4699;DHT22;33708;49.466;11.176;2022-07-23T07:15:08;39.50;1.00
4699;DHT22;33708;49.466;11.176;2022-07-23T07:17:34;37.10;1.00
4699;DHT22;33708;49.466;11.176;2022-07-23T07:20:00;35.70;1.00
4699;DHT22;33708;49.466;11.176;2022-07-23T07:22:26;34.60;1.00
4699;DHT22;33708;49.466;11.176;2022-07-23T07:24:51;33.70;1.00
4699;DHT22;33708;49.466;11.176;2022-07-23T07:27:17;33.50;1.00
4699;DHT22;33708;49.466;11.176;2022-07-23T07:29:42;33.30;1.00
4699;DHT22;33708;49.466;11.176;2022-07-23T07:32:08;32.90;1.00
4699;DHT22;33708;49.466;11.176;2022-07-23T07:34:34;32.30;1.00
4699;DHT22;33708;49.466;11.176;2022-07-23T07:37:00;32.30;1.00
4699;DHT22;33708;49.466;11.176;2022-07-23T07:39:25;32.00;1.00
4699;DHT22;33708;49.466;11.176;2022-07-23T07:41:51;30.70;1.00
4699;DHT22;33708;49.466;11.176;2022-07-23T07:44:17;30.50;1.00
4699;DHT22;33708;49.466;11.176;2022-07-23T07:46:42;30.30;1.00
4699;DHT22;33708;49.466;11.176;2022-07-23T07:49:08;30.10;1.00
4699;DHT22;33708;49.466;11.176;2022-07-23T07:51:34;30.00;1.00
4699;DHT22;33708;49.466;11.176;2022-07-23T07:53:59;29.80;1.00
4699;DHT22;33708;49.466;11.176;2022-07-23T07:56:25;29.90;1.00
4699;DHT22;33708;49.466;11.176;2022-07-23T07:58:51;29.70;1.00
4699;DHT22;33708;49.466;11.176;2022-07-23T08:01:16;29.30;1.00
4699;DHT22;33708;49.466;11.176;2022-07-23T08:03:42;28.70;1.00
4699;DHT22;33708;49.466;11.176;2022-07-23T08:06:08;28.30;1.00
4699;DHT22;33708;49.466;11.176;2022-07-23T08:08:34;27.70;1.00
4699;DHT22;33708;49.466;11.176;2022-07-23T08:10:59;27.40;1.00
4699;DHT22;33708;49.466;11.176;2022-07-23T08:13:25;27.60;1.00
4699;DHT22;33708;49.466;11.176;2022-07-23T08:15:50;27.80;1.00
4699;DHT22;33708;49.466;11.176;2022-07-23T08:18:19;27.80;1.00
4699;DHT22;33708;49.466;11.176;2022-07-23T08:20:47;28.10;1.00
4699;DHT22;33708;49.466;11.176;2022-07-23T08:23:13;28.20;1.00
4699;DHT22;33708;49.466;11.176;2022-07-23T08:25:41;28.40;1.00
4699;DHT22;33708;49.466;11.176;2022-07-23T08:28:09;28.60;1.00
4699;DHT22;33708;49.466;11.176;2022-07-23T08:30:35;27.70;1.00
4699;DHT22;33708;49.466;11.176;2022-07-23T08:33:06;27.80;1.00
4699;DHT22;33708;49.466;11.176;2022-07-23T08:35:49;28.00;1.00
4699;DHT22;33708;49.466;11.176;2022-07-23T08:38:17;28.20;1.00
4699;DHT22;33708;49.466;11.176;2022-07-23T08:40:48;28.00;1.00
4699;DHT22;33708;49.466;11.176;2022-07-23T08:43:16;27.90;1.00
4699;DHT22;33708;49.466;11.176;2022-07-23T08:45:44;27.70;1.00
4699;DHT22;33708;49.466;11.176;2022-07-23T08:48:21;27.50;1.00
4699;DHT22;33708;49.466;11.176;2022-07-23T08:50:57;27.50;1.00
4699;DHT22;33708;49.466;11.176;2022-07-23T08:53:25;27.20;1.00
4699;DHT22;33708;49.466;11.176;2022-07-23T08:55:55;26.90;1.00
4699;DHT22;33708;49.466;11.176;2022-07-23T08:58:22;26.70;1.00
4699;DHT22;33708;49.466;11.176;2022-07-23T09:00:48;26.10;1.00
4699;DHT22;33708;49.466;11.176;2022-07-23T09:03:25;25.80;1.00
4699;DHT22;33708;49.466;11.176;2022-07-23T09:05:52;25.70;99.90
4699;DHT22;33708;49.466;11.176;2022-07-23T09:08:20;25.60;1.00
4699;DHT22;33708;49.466;11.176;2022-07-23T09:18:46;25.10;1.00
4699;DHT22;33708;49.466;11.176;2022-07-23T09:24:00;24.50;1.00
4699;DHT22;33708;49.466;11.176;2022-07-23T09:26:47;24.50;1.00
4699;DHT22;33708;49.466;11.176;2022-07-23T09:29:23;24.30;1.00
4699;DHT22;33708;49.466;11.176;2022-07-23T09:32:01;24.30;1.00
4699;DHT22;33708;49.466;11.176;2022-07-23T09:34:34;24.10;1.00
4699;DHT22;33708;49.466;11.176;2022-07-23T09:37:17;23.90;1.00
4699;DHT22;33708;49.466;11.176;2022-07-23T09:39:45;23.50;1.00
4699;DHT22;33708;49.466;11.176;2022-07-23T09:42:25;23.40;1.00
4699;DHT22;33708;49.466;11.176;2022-07-23T09:44:55;23.50;1.00
4699;DHT22;33708;49.466;11.176;2022-07-23T09:47:23;23.40;1.00
4699;DHT22;33708;49.466;11.176;2022-07-23T09:50:09;23.30;1.00
4699;DHT22;33708;49.466;11.176;2022-07-23T09:52:45;23.30;1.00
4699;DHT22;33708;49.466;11.176;2022-07-23T09:55:15;22.80;1.00
4699;DHT22;33708;49.466;11.176;2022-07-23T09:57:41;22.60;1.00
4699;DHT22;33708;49.466;11.176;2022-07-23T10:00:10;22.70;1.00
4699;DHT22;33708;49.466;11.176;2022-07-23T10:02:37;22.80;1.00
4699;DHT22;33708;49.466;11.176;2022-07-23T10:05:03;22.70;1.00
4699;DHT22;33708;49.466;11.176;2022-07-23T10:07:33;22.90;1.00
4699;DHT22;33708;49.466;11.176;2022-07-23T10:10:01;23.10;1.00
4699;DHT22;33708;49.466;11.176;2022-07-23T10:12:27;22.70;1.00
4699;DHT22;33708;49.466;11.176;2022-07-23T10:14:59;22.60;1.00
4699;DHT22;33708;49.466;11.176;2022-07-23T10:17:27;22.70;1.00
4699;DHT22;33708;49.466;11.176;2022-07-23T10:19:52;22.80;1.00
4699;DHT22;33708;49.466;11.176;2022-07-23T10:22:25;22.90;1.00
4699;DHT22;33708;49.466;11.176;2022-07-23T10:25:18;22.80;1.00
4699;DHT22;33708;49.466;11.176;2022-07-23T10:36:32;22.00;1.00
4699;DHT22;33708;49.466;11.176;2022-07-23T10:39:05;21.70;1.00
4699;DHT22;33708;49.466;11.176;2022-07-23T10:41:42;21.50;1.00
4699;DHT22;33708;49.466;11.176;2022-07-23T10:46:35;21.00;99.90
4699;DHT22;33708;49.466;11.176;2022-07-23T10:49:25;20.80;99.90
4699;DHT22;33708;49.466;11.176;2022-07-23T10:57:13;20.90;99.90
4699;DHT22;33708;49.466;11.176;2022-07-23T11:02:35;20.60;1.00
4699;DHT22;33708;49.466;11.176;2022-07-23T11:05:06;20.60;99.90
4699;DHT22;33708;49.466;11.176;2022-07-23T11:07:33;20.50;1.00
4699;DHT22;33708;49.466;11.176;2022-07-23T11:09:58;20.60;1.00
4699;DHT22;33708;49.466;11.176;2022-07-23T11:15:09;20.90;1.00
4699;DHT22;33708;49.466;11.176;2022-07-23T11:17:58;21.30;1.00
4699;DHT22;33708;49.466;11.176;2022-07-23T11:20:24;21.80;99.90
4699;DHT22;33708;49.466;11.176;2022-07-23T11:22:52;22.20;99.90
4699;DHT22;33708;49.466;11.176;2022-07-23T11:27:51;22.50;36.20
4699;DHT22;33708;49.466;11.176;2022-07-23T11:35:44;24.70;17.20
4699;DHT22;33708;49.466;11.176;2022-07-23T11:38:21;24.80;2.60
4699;DHT22;33708;49.466;11.176;2022-07-23T11:40:53;24.70;1.00
4699;DHT22;33708;49.466;11.176;2022-07-23T11:43:20;25.00;1.00
4699;DHT22;33708;49.466;11.176;2022-07-23T11:45:54;25.00;1.00
4699;DHT22;33708;49.466;11.176;2022-07-23T11:48:26;24.90;1.00
4699;DHT22;33708;49.466;11.176;2022-07-23T11:50:53;25.10;1.00
4699;DHT22;33708;49.466;11.176;2022-07-23T11:53:31;25.50;1.00
4699;DHT22;33708;49.466;11.176;2022-07-23T11:56:08;25.10;1.00
4699;DHT22;33708;49.466;11.176;2022-07-23T11:58:35;25.90;1.00
4699;DHT22;33708;49.466;11.176;2022-07-23T12:01:03;26.00;1.00
4699;DHT22;33708;49.466;11.176;2022-07-23T12:03:28;27.10;1.00
4699;DHT22;33708;49.466;11.176;2022-07-23T12:05:58;27.90;1.00
4699;DHT22;33708;49.466;11.176;2022-07-23T12:08:24;28.10;1.00
4699;DHT22;33708;49.466;11.176;2022-07-23T12:10:50;28.40;1.00
4699;DHT22;33708;49.466;11.176;2022-07-23T12:13:18;28.20;1.00
4699;DHT22;33708;49.466;11.176;2022-07-23T12:15:47;27.90;1.00
4699;DHT22;33708;49.466;11.176;2022-07-23T12:18:16;29.10;1.00
4699;DHT22;33708;49.466;11.176;2022-07-23T12:20:45;28.60;1.00
4699;DHT22;33708;49.466;11.176;2022-07-23T12:23:14;28.40;1.00
4699;DHT22;33708;49.466;11.176;2022-07-23T12:25:42;28.40;1.00
4699;DHT22;33708;49.466;11.176;2022-07-23T12:28:20;28.50;1.00
4699;DHT22;33708;49.466;11.176;2022-07-23T12:33:14;28.70;1.00
4699;DHT22;33708;49.466;11.176;2022-07-23T12:35:46;28.50;1.00
4699;DHT22;33708;49.466;11.176;2022-07-23T12:38:15;27.50;1.00
4699;DHT22;33708;49.466;11.176;2022-07-23T12:40:58;27.60;1.00
4699;DHT22;33708;49.466;11.176;2022-07-23T12:43:38;28.20;1.00
4699;DHT22;33708;49.466;11.176;2022-07-23T12:48:38;28.50;1.00
4699;DHT22;33708;49.466;11.176;2022-07-23T12:51:08;29.10;1.00
4699;DHT22;33708;49.466;11.176;2022-07-23T12:53:42;28.80;1.00
4699;DHT22;33708;49.466;11.176;2022-07-23T13:01:07;29.10;1.00
4699;DHT22;33708;49.466;11.176;2022-07-23T13:03:39;29.40;1.00
4699;DHT22;33708;49.466;11.176;2022-07-23T13:06:08;28.90;1.00
4699;DHT22;33708;49.466;11.176;2022-07-23T13:08:36;28.60;1.00
4699;DHT22;33708;49.466;11.176;2022-07-23T13:11:03;28.80;1.00
4699;DHT22;33708;49.466;11.176;2022-07-23T13:13:34;28.80;1.00
4699;DHT22;33708;49.466;11.176;2022-07-23T13:16:01;28.60;1.00
4699;DHT22;33708;49.466;11.176;2022-07-23T13:18:27;28.50;1.00
4699;DHT22;33708;49.466;11.176;2022-07-23T13:20:54;28.60;1.00
4699;DHT22;33708;49.466;11.176;2022-07-23T13:23:20;28.70;1.00
4699;DHT22;33708;49.466;11.176;2022-07-23T13:25:46;29.40;1.00
4699;DHT22;33708;49.466;11.176;2022-07-23T13:28:13;29.60;1.00
4699;DHT22;33708;49.466;11.176;2022-07-23T13:30:39;29.60;1.00
4699;DHT22;33708;49.466;11.176;2022-07-23T13:33:05;29.90;1.00
4699;DHT22;33708;49.466;11.176;2022-07-23T13:35:32;30.30;1.00
4699;DHT22;33708;49.466;11.176;2022-07-23T13:37:58;30.50;1.00
4699;DHT22;33708;49.466;11.176;2022-07-23T13:40:24;30.20;1.00
4699;DHT22;33708;49.466;11.176;2022-07-23T13:42:50;30.50;1.00
4699;DHT22;33708;49.466;11.176;2022-07-23T13:45:16;30.20;1.00
4699;DHT22;33708;49.466;11.176;2022-07-23T13:47:41;30.40;1.00
4699;DHT22;33708;49.466;11.176;2022-07-23T13:50:07;30.70;1.00
4699;DHT22;33708;49.466;11.176;2022-07-23T13:52:33;30.30;1.00
4699;DHT22;33708;49.466;11.176;2022-07-23T13:55:04;30.20;1.00
4699;DHT22;33708;49.466;11.176;2022-07-23T13:57:31;30.50;1.00
4699;DHT22;33708;49.466;11.176;2022-07-23T13:59:56;30.60;1.00
4699;DHT22;33708;49.466;11.176;2022-07-23T14:02:22;30.40;1.00
4699;DHT22;33708;49.466;11.176;2022-07-23T14:04:49;30.30;1.00
4699;DHT22;33708;49.466;11.176;2022-07-23T14:07:15;30.50;1.00
4699;DHT22;33708;49.466;11.176;2022-07-23T14:09:41;30.20;1.00
4699;DHT22;33708;49.466;11.176;2022-07-23T14:12:07;30.20;1.00
4699;DHT22;33708;49.466;11.176;2022-07-23T14:14:32;30.10;1.00
4699;DHT22;33708;49.466;11.176;2022-07-23T14:16:58;30.50;1.00
4699;DHT22;33708;49.466;11.176;2022-07-23T14:19:24;30.40;1.00
4699;DHT22;33708;49.466;11.176;2022-07-23T14:21:50;30.60;1.00
4699;DHT22;33708;49.466;11.176;2022-07-23T14:24:16;30.90;1.00
4699;DHT22;33708;49.466;11.176;2022-07-23T14:26:41;30.80;1.00
4699;DHT22;33708;49.466;11.176;2022-07-23T14:29:07;31.40;1.00
4699;DHT22;33708;49.466;11.176;2022-07-23T14:31:33;31.30;1.00
4699;DHT22;33708;49.466;11.176;2022-07-23T14:33:59;31.20;1.00
4699;DHT22;33708;49.466;11.176;2022-07-23T14:36:25;31.10;1.00
4699;DHT22;33708;49.466;11.176;2022-07-23T14:38:51;31.10;1.00
4699;DHT22;33708;49.466;11.176;2022-07-23T14:41:17;31.30;1.00
4699;DHT22;33708;49.466;11.176;2022-07-23T14:43:43;31.80;1.00
4699;DHT22;33708;49.466;11.176;2022-07-23T14:46:09;32.40;1.00
4699;DHT22;33708;49.466;11.176;2022-07-23T14:48:36;32.20;1.00
4699;DHT22;33708;49.466;11.176;2022-07-23T14:51:02;31.40;1.00
4699;DHT22;33708;49.466;11.176;2022-07-23T14:53:28;30.80;1.00
4699;DHT22;33708;49.466;11.176;2022-07-23T14:55:54;30.20;1.00
4699;DHT22;33708;49.466;11.176;2022-07-23T14:58:23;30.70;1.00
4699;DHT22;33708;49.466;11.176;2022-07-23T15:00:49;31.60;1.00
4699;DHT22;33708;49.466;11.176;2022-07-23T15:03:15;31.80;1.00
4699;DHT22;33708;49.466;11.176;2022-07-23T15:05:40;32.30;1.00
4699;DHT22;33708;49.466;11.176;2022-07-23T15:08:06;31.70;1.00
4699;DHT22;33708;49.466;11.176;2022-07-23T15:10:32;30.80;1.00
4699;DHT22;33708;49.466;11.176;2022-07-23T15:12:58;30.60;1.00
4699;DHT22;33708;49.466;11.176;2022-07-23T15:15:23;30.10;1.00
4699;DHT22;33708;49.466;11.176;2022-07-23T15:17:49;29.80;1.00
4699;DHT22;33708;49.466;11.176;2022-07-23T15:20:15;30.00;1.00
4699;DHT22;33708;49.466;11.176;2022-07-23T15:22:40;29.60;1.00
4699;DHT22;33708;49.466;11.176;2022-07-23T15:25:07;30.20;1.00
4699;DHT22;33708;49.466;11.176;2022-07-23T15:27:32;30.10;1.00
4699;DHT22;33708;49.466;11.176;2022-07-23T15:29:58;30.10;1.00
4699;DHT22;33708;49.466;11.176;2022-07-23T15:32:24;30.30;1.00
4699;DHT22;33708;49.466;11.176;2022-07-23T15:34:55;30.40;1.00
4699;DHT22;33708;49.466;11.176;2022-07-23T15:37:21;30.50;1.00
4699;DHT22;33708;49.466;11.176;2022-07-23T15:39:48;30.60;1.00
4699;DHT22;33708;49.466;11.176;2022-07-23T15:42:14;30.60;1.00
4699;DHT22;33708;49.466;11.176;2022-07-23T15:44:40;30.90;1.00
4699;DHT22;33708;49.466;11.176;2022-07-23T15:47:12;30.70;1.00
4699;DHT22;33708;49.466;11.176;2022-07-23T15:49:38;31.00;1.00
4699;DHT22;33708;49.466;11.176;2022-07-23T15:52:03;31.20;1.00
4699;DHT22;33708;49.466;11.176;2022-07-23T15:54:29;30.80;1.00
4699;DHT22;33708;49.466;11.176;2022-07-23T15:56:55;30.70;1.00
4699;DHT22;33708;49.466;11.176;2022-07-23T15:59:20;30.70;1.00
4699;DHT22;33708;49.466;11.176;2022-07-23T16:01:46;30.40;1.00
4699;DHT22;33708;49.466;11.176;2022-07-23T16:04:12;30.40;1.00
4699;DHT22;33708;49.466;11.176;2022-07-23T16:06:37;30.00;1.00
4699;DHT22;33708;49.466;11.176;2022-07-23T16:09:05;30.00;1.00
4699;DHT22;33708;49.466;11.176;2022-07-23T16:11:31;29.80;1.00
4699;DHT22;33708;49.466;11.176;2022-07-23T16:13:57;29.70;1.00
4699;DHT22;33708;49.466;11.176;2022-07-23T16:16:23;29.50;1.00
4699;DHT22;33708;49.466;11.176;2022-07-23T16:18:50;29.30;1.00
4699;DHT22;33708;49.466;11.176;2022-07-23T16:21:16;29.00;1.00
4699;DHT22;33708;49.466;11.176;2022-07-23T16:23:43;29.10;1.00
4699;DHT22;33708;49.466;11.176;2022-07-23T16:26:09;29.10;1.00
4699;DHT22;33708;49.466;11.176;2022-07-23T16:28:35;29.00;1.00
4699;DHT22;33708;49.466;11.176;2022-07-23T16:31:02;29.30;1.00
4699;DHT22;33708;49.466;11.176;2022-07-23T16:33:28;29.30;1.00
4699;DHT22;33708;49.466;11.176;2022-07-23T16:35:54;29.30;1.00